sensor_id;sensor_type;location;lat;lon;timestamp;P1;durP1;ratioP1;P2;durP2;ratioP2
60641;SDS011;46837;52.446;-1.930;2023-07-31T00:00:07;3.86;;;1.64;;
60641;SDS011;46837;52.446;-1.930;2023-07-31T00:01:07;3.24;;;1.90;;
60641;SDS011;46837;52.446;-1.930;2023-07-31T00:02:07;6.18;;;1.36;;
60641;SDS011;46837;52.446;-1.930;2023-07-31T00:03:07;1.46;;;1.04;;
60641;SDS011;46837;52.446;-1.930;2023-07-31T00:04:07;2.54;;;2.02;;
60641;SDS011;46837;52.446;-1.930;2023-07-31T00:05:08;6.86;;;2.10;;
60641;SDS011;46837;52.446;-1.930;2023-07-31T00:06:07;4.78;;;1.74;;
60641;SDS011;46837;52.446;-1.930;2023-07-31T00:07:07;7.04;;;2.00;;
60641;SDS011;46837;52.446;-1.930;2023-07-31T00:08:07;6.68;;;2.18;;
60641;SDS011;46837;52.446;-1.930;2023-07-31T00:09:07;1.98;;;1.70;;
60641;SDS011;46837;52.446;-1.930;2023-07-31T00:10:07;2.22;;;1.82;;
60641;SDS011;46837;52.446;-1.930;2023-07-31T00:11:07;5.56;;;2.24;;
60641;SDS011;46837;52.446;-1.930;2023-07-31T00:12:07;2.34;;;2.14;;
60641;SDS011;46837;52.446;-1.930;2023-07-31T00:13:07;4.88;;;1.90;;
60641;SDS011;46837;52.446;-1.930;2023-07-31T00:14:07;4.84;;;1.60;;
60641;SDS011;46837;52.446;-1.930;2023-07-31T00:15:07;3.38;;;2.08;;
60641;SDS011;46837;52.446;-1.930;2023-07-31T00:16:07;3.32;;;1.56;;
60641;SDS011;46837;52.446;-1.930;2023-07-31T00:17:07;2.10;;;1.62;;
60641;SDS011;46837;52.446;-1.930;2023-07-31T00:18:07;2.48;;;1.78;;
60641;SDS011;46837;52.446;-1.930;2023-07-31T00:19:07;1.92;;;1.68;;
60641;SDS011;46837;52.446;-1.930;2023-07-31T00:20:07;3.94;;;1.92;;
60641;SDS011;46837;52.446;-1.930;2023-07-31T00:21:07;2.88;;;1.82;;
60641;SDS011;46837;52.446;-1.930;2023-07-31T00:22:07;4.40;;;2.16;;
60641;SDS011;46837;52.446;-1.930;2023-07-31T00:23:07;2.16;;;1.56;;
60641;SDS011;46837;52.446;-1.930;2023-07-31T00:24:07;3.32;;;1.80;;
60641;SDS011;46837;52.446;-1.930;2023-07-31T00:25:07;2.38;;;1.72;;
60641;SDS011;46837;52.446;-1.930;2023-07-31T00:26:07;2.28;;;1.58;;
60641;SDS011;46837;52.446;-1.930;2023-07-31T00:27:07;5.02;;;2.54;;
60641;SDS011;46837;52.446;-1.930;2023-07-31T00:28:07;3.22;;;1.66;;
60641;SDS011;46837;52.446;-1.930;2023-07-31T00:29:07;2.26;;;1.04;;
60641;SDS011;46837;52.446;-1.930;2023-07-31T00:30:07;3.36;;;1.50;;
60641;SDS011;46837;52.446;-1.930;2023-07-31T00:31:07;1.90;;;1.40;;
60641;SDS011;46837;52.446;-1.930;2023-07-31T00:32:07;4.02;;;1.50;;
60641;SDS011;46837;52.446;-1.930;2023-07-31T00:33:07;5.68;;;1.98;;
60641;SDS011;46837;52.446;-1.930;2023-07-31T00:34:07;2.72;;;1.52;;
60641;SDS011;46837;52.446;-1.930;2023-07-31T00:35:07;4.74;;;1.56;;
60641;SDS011;46837;52.446;-1.930;2023-07-31T00:36:07;2.10;;;1.60;;
60641;SDS011;46837;52.446;-1.930;2023-07-31T00:37:07;1.54;;;1.40;;
60641;SDS011;46837;52.446;-1.930;2023-07-31T00:38:07;2.52;;;1.48;;
60641;SDS011;46837;52.446;-1.930;2023-07-31T00:39:07;3.54;;;1.82;;
60641;SDS011;46837;52.446;-1.930;2023-07-31T00:40:07;4.28;;;1.90;;
60641;SDS011;46837;52.446;-1.930;2023-07-31T00:41:07;4.10;;;1.84;;
60641;SDS011;46837;52.446;-1.930;2023-07-31T00:42:07;6.46;;;2.16;;
60641;SDS011;46837;52.446;-1.930;2023-07-31T00:43:07;3.56;;;1.60;;
60641;SDS011;46837;52.446;-1.930;2023-07-31T00:44:07;2.12;;;1.24;;
60641;SDS011;46837;52.446;-1.930;2023-07-31T00:45:07;2.92;;;1.58;;
60641;SDS011;46837;52.446;-1.930;2023-07-31T00:46:07;3.76;;;1.32;;
60641;SDS011;46837;52.446;-1.930;2023-07-31T00:47:07;6.28;;;2.00;;
60641;SDS011;46837;52.446;-1.930;2023-07-31T00:48:07;3.36;;;1.42;;
60641;SDS011;46837;52.446;-1.930;2023-07-31T00:49:07;1.94;;;1.72;;
60641;SDS011;46837;52.446;-1.930;2023-07-31T00:50:07;6.88;;;1.58;;
60641;SDS011;46837;52.446;-1.930;2023-07-31T00:51:07;3.74;;;1.34;;
60641;SDS011;46837;52.446;-1.930;2023-07-31T00:52:07;3.48;;;1.46;;
60641;SDS011;46837;52.446;-1.930;2023-07-31T00:53:07;5.18;;;1.74;;
60641;SDS011;46837;52.446;-1.930;2023-07-31T00:54:07;1.84;;;1.30;;
60641;SDS011;46837;52.446;-1.930;2023-07-31T00:55:07;7.78;;;1.64;;
60641;SDS011;46837;52.446;-1.930;2023-07-31T00:56:07;2.36;;;1.34;;
60641;SDS011;46837;52.446;-1.930;2023-07-31T00:57:07;2.86;;;1.58;;
60641;SDS011;46837;52.446;-1.930;2023-07-31T00:58:07;2.08;;;1.30;;
60641;SDS011;46837;52.446;-1.930;2023-07-31T00:59:07;3.02;;;1.34;;
60641;SDS011;46837;52.446;-1.930;2023-07-31T01:00:08;2.46;;;1.34;;
60641;SDS011;46837;52.446;-1.930;2023-07-31T01:01:07;2.04;;;1.20;;
60641;SDS011;46837;52.446;-1.930;2023-07-31T01:02:07;2.30;;;1.70;;
60641;SDS011;46837;52.446;-1.930;2023-07-31T01:03:07;3.54;;;1.36;;
60641;SDS011;46837;52.446;-1.930;2023-07-31T01:04:07;3.64;;;2.08;;
60641;SDS011;46837;52.446;-1.930;2023-07-31T01:05:07;2.24;;;1.32;;
60641;SDS011;46837;52.446;-1.930;2023-07-31T01:07:10;2.30;;;0.86;;
60641;SDS011;46837;52.446;-1.930;2023-07-31T01:08:12;3.56;;;1.52;;
60641;SDS011;46837;52.446;-1.930;2023-07-31T01:09:09;3.26;;;1.22;;
60641;SDS011;46837;52.446;-1.930;2023-07-31T01:11:13;4.76;;;1.12;;
60641;SDS011;46837;52.446;-1.930;2023-07-31T01:12:07;1.58;;;0.86;;
60641;SDS011;46837;52.446;-1.930;2023-07-31T01:13:07;1.82;;;1.10;;
60641;SDS011;46837;52.446;-1.930;2023-07-31T01:14:07;3.96;;;1.48;;
60641;SDS011;46837;52.446;-1.930;2023-07-31T01:15:08;7.36;;;1.82;;
60641;SDS011;46837;52.446;-1.930;2023-07-31T01:16:07;3.46;;;1.46;;
60641;SDS011;46837;52.446;-1.930;2023-07-31T01:17:07;1.48;;;1.10;;
60641;SDS011;46837;52.446;-1.930;2023-07-31T01:18:07;1.40;;;1.18;;
60641;SDS011;46837;52.446;-1.930;2023-07-31T01:19:07;1.44;;;0.66;;
60641;SDS011;46837;52.446;-1.930;2023-07-31T01:21:30;4.96;;;1.62;;
60641;SDS011;46837;52.446;-1.930;2023-07-31T01:27:10;1.24;;;1.14;;
60641;SDS011;46837;52.446;-1.930;2023-07-31T01:28:13;2.58;;;1.14;;
60641;SDS011;46837;52.446;-1.930;2023-07-31T01:29:10;4.56;;;1.34;;
60641;SDS011;46837;52.446;-1.930;2023-07-31T01:30:15;2.34;;;0.80;;
60641;SDS011;46837;52.446;-1.930;2023-07-31T01:31:07;0.80;;;0.80;;
60641;SDS011;46837;52.446;-1.930;2023-07-31T01:32:07;0.70;;;0.62;;
60641;SDS011;46837;52.446;-1.930;2023-07-31T01:33:08;2.16;;;0.66;;
60641;SDS011;46837;52.446;-1.930;2023-07-31T01:34:07;1.06;;;0.82;;
60641;SDS011;46837;52.446;-1.930;2023-07-31T01:35:07;1.66;;;0.52;;
60641;SDS011;46837;52.446;-1.930;2023-07-31T01:36:07;3.78;;;1.10;;
60641;SDS011;46837;52.446;-1.930;2023-07-31T01:37:07;0.68;;;0.68;;
60641;SDS011;46837;52.446;-1.930;2023-07-31T01:38:07;1.48;;;0.88;;
60641;SDS011;46837;52.446;-1.930;2023-07-31T01:39:07;1.94;;;0.80;;
60641;SDS011;46837;52.446;-1.930;2023-07-31T01:40:07;0.70;;;0.62;;
60641;SDS011;46837;52.446;-1.930;2023-07-31T01:41:07;1.34;;;0.64;;
60641;SDS011;46837;52.446;-1.930;2023-07-31T01:42:07;1.52;;;0.80;;
60641;SDS011;46837;52.446;-1.930;2023-07-31T01:43:07;1.24;;;0.84;;
60641;SDS011;46837;52.446;-1.930;2023-07-31T01:44:07;0.78;;;0.50;;
60641;SDS011;46837;52.446;-1.930;2023-07-31T01:45:07;0.70;;;0.70;;
60641;SDS011;46837;52.446;-1.930;2023-07-31T01:46:07;0.82;;;0.82;;
60641;SDS011;46837;52.446;-1.930;2023-07-31T01:47:07;2.14;;;0.58;;
60641;SDS011;46837;52.446;-1.930;2023-07-31T01:48:07;0.74;;;0.66;;
60641;SDS011;46837;52.446;-1.930;2023-07-31T01:49:07;0.86;;;0.72;;
60641;SDS011;46837;52.446;-1.930;2023-07-31T01:50:07;1.12;;;0.36;;
60641;SDS011;46837;52.446;-1.930;2023-07-31T01:51:07;0.94;;;0.84;;
60641;SDS011;46837;52.446;-1.930;2023-07-31T01:52:07;0.50;;;0.50;;
60641;SDS011;46837;52.446;-1.930;2023-07-31T01:53:07;0.52;;;0.38;;
60641;SDS011;46837;52.446;-1.930;2023-07-31T01:54:07;1.28;;;0.50;;
60641;SDS011;46837;52.446;-1.930;2023-07-31T01:55:07;0.60;;;0.58;;
60641;SDS011;46837;52.446;-1.930;2023-07-31T01:56:07;1.10;;;0.80;;
60641;SDS011;46837;52.446;-1.930;2023-07-31T01:57:07;1.44;;;0.60;;
60641;SDS011;46837;52.446;-1.930;2023-07-31T01:58:07;1.78;;;0.54;;
60641;SDS011;46837;52.446;-1.930;2023-07-31T01:59:07;4.16;;;0.48;;
60641;SDS011;46837;52.446;-1.930;2023-07-31T02:00:07;0.84;;;0.42;;
60641;SDS011;46837;52.446;-1.930;2023-07-31T02:01:07;1.04;;;0.24;;
60641;SDS011;46837;52.446;-1.930;2023-07-31T02:02:07;1.66;;;0.52;;
60641;SDS011;46837;52.446;-1.930;2023-07-31T02:03:07;1.30;;;0.58;;
60641;SDS011;46837;52.446;-1.930;2023-07-31T02:04:07;1.22;;;0.60;;
60641;SDS011;46837;52.446;-1.930;2023-07-31T02:05:07;3.42;;;0.48;;
60641;SDS011;46837;52.446;-1.930;2023-07-31T02:06:07;0.66;;;0.66;;
60641;SDS011;46837;52.446;-1.930;2023-07-31T02:07:07;0.54;;;0.44;;
60641;SDS011;46837;52.446;-1.930;2023-07-31T02:08:07;1.78;;;0.58;;
60641;SDS011;46837;52.446;-1.930;2023-07-31T02:09:07;1.00;;;0.48;;
60641;SDS011;46837;52.446;-1.930;2023-07-31T02:10:07;0.96;;;0.32;;
60641;SDS011;46837;52.446;-1.930;2023-07-31T02:11:07;1.12;;;0.44;;
60641;SDS011;46837;52.446;-1.930;2023-07-31T02:12:07;0.24;;;0.22;;
60641;SDS011;46837;52.446;-1.930;2023-07-31T02:13:07;1.14;;;0.36;;
60641;SDS011;46837;52.446;-1.930;2023-07-31T02:14:07;0.90;;;0.34;;
60641;SDS011;46837;52.446;-1.930;2023-07-31T02:15:07;0.30;;;0.30;;
60641;SDS011;46837;52.446;-1.930;2023-07-31T02:16:07;1.16;;;0.40;;
60641;SDS011;46837;52.446;-1.930;2023-07-31T02:17:07;0.30;;;0.24;;
60641;SDS011;46837;52.446;-1.930;2023-07-31T02:18:07;0.72;;;0.30;;
60641;SDS011;46837;52.446;-1.930;2023-07-31T02:19:07;0.32;;;0.30;;
60641;SDS011;46837;52.446;-1.930;2023-07-31T02:20:07;0.22;;;0.22;;
60641;SDS011;46837;52.446;-1.930;2023-07-31T02:21:07;0.54;;;0.54;;
60641;SDS011;46837;52.446;-1.930;2023-07-31T02:22:07;0.48;;;0.20;;
60641;SDS011;46837;52.446;-1.930;2023-07-31T02:23:07;0.30;;;0.30;;
60641;SDS011;46837;52.446;-1.930;2023-07-31T02:24:07;0.32;;;0.30;;
60641;SDS011;46837;52.446;-1.930;2023-07-31T02:25:07;0.32;;;0.32;;
60641;SDS011;46837;52.446;-1.930;2023-07-31T02:26:07;1.32;;;0.32;;
60641;SDS011;46837;52.446;-1.930;2023-07-31T02:27:07;0.52;;;0.20;;
60641;SDS011;46837;52.446;-1.930;2023-07-31T02:28:07;1.62;;;0.48;;
60641;SDS011;46837;52.446;-1.930;2023-07-31T02:29:07;0.34;;;0.22;;
60641;SDS011;46837;52.446;-1.930;2023-07-31T02:30:07;0.60;;;0.30;;
60641;SDS011;46837;52.446;-1.930;2023-07-31T02:31:07;0.30;;;0.10;;
60641;SDS011;46837;52.446;-1.930;2023-07-31T02:32:07;0.32;;;0.32;;
60641;SDS011;46837;52.446;-1.930;2023-07-31T02:33:07;0.18;;;0.16;;
60641;SDS011;46837;52.446;-1.930;2023-07-31T02:34:07;1.56;;;0.46;;
60641;SDS011;46837;52.446;-1.930;2023-07-31T02:35:07;0.18;;;0.18;;
60641;SDS011;46837;52.446;-1.930;2023-07-31T02:36:07;2.88;;;0.28;;
60641;SDS011;46837;52.446;-1.930;2023-07-31T02:37:07;0.20;;;0.20;;
60641;SDS011;46837;52.446;-1.930;2023-07-31T02:38:07;0.66;;;0.20;;
60641;SDS011;46837;52.446;-1.930;2023-07-31T02:39:07;0.18;;;0.16;;
60641;SDS011;46837;52.446;-1.930;2023-07-31T02:40:07;3.76;;;0.32;;
60641;SDS011;46837;52.446;-1.930;2023-07-31T02:41:07;1.34;;;0.30;;
60641;SDS011;46837;52.446;-1.930;2023-07-31T02:42:07;1.42;;;0.32;;
60641;SDS011;46837;52.446;-1.930;2023-07-31T02:43:07;1.78;;;0.40;;
60641;SDS011;46837;52.446;-1.930;2023-07-31T02:44:07;0.50;;;0.30;;
60641;SDS011;46837;52.446;-1.930;2023-07-31T02:45:07;0.24;;;0.20;;
60641;SDS011;46837;52.446;-1.930;2023-07-31T02:46:07;0.66;;;0.30;;
60641;SDS011;46837;52.446;-1.930;2023-07-31T02:47:07;0.46;;;0.46;;
60641;SDS011;46837;52.446;-1.930;2023-07-31T02:48:07;0.84;;;0.32;;
60641;SDS011;46837;52.446;-1.930;2023-07-31T02:49:07;2.54;;;0.72;;
60641;SDS011;46837;52.446;-1.930;2023-07-31T02:50:07;0.18;;;0.18;;
60641;SDS011;46837;52.446;-1.930;2023-07-31T02:51:07;0.84;;;0.26;;
60641;SDS011;46837;52.446;-1.930;2023-07-31T02:52:07;1.54;;;0.48;;
60641;SDS011;46837;52.446;-1.930;2023-07-31T02:53:07;3.18;;;0.20;;
60641;SDS011;46837;52.446;-1.930;2023-07-31T02:54:07;0.20;;;0.20;;
60641;SDS011;46837;52.446;-1.930;2023-07-31T02:55:07;1.26;;;0.26;;
60641;SDS011;46837;52.446;-1.930;2023-07-31T02:56:07;0.32;;;0.10;;
60641;SDS011;46837;52.446;-1.930;2023-07-31T02:57:07;0.88;;;0.20;;
60641;SDS011;46837;52.446;-1.930;2023-07-31T02:58:07;0.48;;;0.22;;
60641;SDS011;46837;52.446;-1.930;2023-07-31T02:59:07;0.20;;;0.10;;
60641;SDS011;46837;52.446;-1.930;2023-07-31T03:00:07;0.64;;;0.20;;
60641;SDS011;46837;52.446;-1.930;2023-07-31T03:01:07;0.52;;;0.20;;
60641;SDS011;46837;52.446;-1.930;2023-07-31T03:02:07;1.96;;;0.20;;
60641;SDS011;46837;52.446;-1.930;2023-07-31T03:03:07;1.10;;;0.20;;
60641;SDS011;46837;52.446;-1.930;2023-07-31T03:04:07;1.40;;;0.36;;
60641;SDS011;46837;52.446;-1.930;2023-07-31T03:05:07;3.78;;;0.18;;
60641;SDS011;46837;52.446;-1.930;2023-07-31T03:06:07;5.36;;;0.94;;
60641;SDS011;46837;52.446;-1.930;2023-07-31T03:07:07;2.18;;;0.38;;
60641;SDS011;46837;52.446;-1.930;2023-07-31T03:08:07;1.10;;;0.26;;
60641;SDS011;46837;52.446;-1.930;2023-07-31T03:09:07;4.32;;;0.28;;
60641;SDS011;46837;52.446;-1.930;2023-07-31T03:10:07;0.22;;;0.22;;
60641;SDS011;46837;52.446;-1.930;2023-07-31T03:11:07;0.12;;;0.12;;
60641;SDS011;46837;52.446;-1.930;2023-07-31T03:12:07;0.30;;;0.20;;
60641;SDS011;46837;52.446;-1.930;2023-07-31T03:13:07;1.50;;;0.28;;
60641;SDS011;46837;52.446;-1.930;2023-07-31T03:14:07;2.06;;;0.20;;
60641;SDS011;46837;52.446;-1.930;2023-07-31T03:15:07;3.22;;;0.24;;
60641;SDS011;46837;52.446;-1.930;2023-07-31T03:16:07;0.56;;;0.32;;
60641;SDS011;46837;52.446;-1.930;2023-07-31T03:17:07;2.10;;;0.20;;
60641;SDS011;46837;52.446;-1.930;2023-07-31T03:18:07;0.86;;;0.34;;
60641;SDS011;46837;52.446;-1.930;2023-07-31T03:19:07;1.86;;;0.14;;
60641;SDS011;46837;52.446;-1.930;2023-07-31T03:20:07;0.14;;;0.10;;
60641;SDS011;46837;52.446;-1.930;2023-07-31T03:21:07;1.38;;;0.20;;
60641;SDS011;46837;52.446;-1.930;2023-07-31T03:22:07;0.32;;;0.16;;
60641;SDS011;46837;52.446;-1.930;2023-07-31T03:23:07;0.26;;;0.24;;
60641;SDS011;46837;52.446;-1.930;2023-07-31T03:24:07;0.96;;;0.36;;
60641;SDS011;46837;52.446;-1.930;2023-07-31T03:25:07;1.80;;;0.24;;
60641;SDS011;46837;52.446;-1.930;2023-07-31T03:26:08;0.32;;;0.32;;
60641;SDS011;46837;52.446;-1.930;2023-07-31T03:27:07;0.34;;;0.20;;
60641;SDS011;46837;52.446;-1.930;2023-07-31T03:28:07;2.42;;;0.26;;
60641;SDS011;46837;52.446;-1.930;2023-07-31T03:29:07;0.50;;;0.48;;
60641;SDS011;46837;52.446;-1.930;2023-07-31T03:30:07;1.54;;;0.22;;
60641;SDS011;46837;52.446;-1.930;2023-07-31T03:31:07;1.02;;;0.40;;
60641;SDS011;46837;52.446;-1.930;2023-07-31T03:32:07;0.42;;;0.26;;
60641;SDS011;46837;52.446;-1.930;2023-07-31T03:33:07;0.24;;;0.24;;
60641;SDS011;46837;52.446;-1.930;2023-07-31T03:34:07;0.32;;;0.32;;
60641;SDS011;46837;52.446;-1.930;2023-07-31T03:35:07;1.00;;;0.62;;
60641;SDS011;46837;52.446;-1.930;2023-07-31T03:36:07;1.30;;;0.40;;
60641;SDS011;46837;52.446;-1.930;2023-07-31T03:37:07;1.08;;;0.64;;
60641;SDS011;46837;52.446;-1.930;2023-07-31T03:38:07;0.90;;;0.48;;
60641;SDS011;46837;52.446;-1.930;2023-07-31T03:39:07;0.72;;;0.42;;
60641;SDS011;46837;52.446;-1.930;2023-07-31T03:40:07;4.84;;;0.58;;
60641;SDS011;46837;52.446;-1.930;2023-07-31T03:41:07;0.46;;;0.44;;
60641;SDS011;46837;52.446;-1.930;2023-07-31T03:42:07;1.32;;;0.62;;
60641;SDS011;46837;52.446;-1.930;2023-07-31T03:43:07;0.74;;;0.72;;
60641;SDS011;46837;52.446;-1.930;2023-07-31T03:44:07;4.00;;;1.02;;
60641;SDS011;46837;52.446;-1.930;2023-07-31T03:45:07;3.22;;;0.64;;
60641;SDS011;46837;52.446;-1.930;2023-07-31T03:46:07;1.82;;;0.64;;
60641;SDS011;46837;52.446;-1.930;2023-07-31T03:47:07;1.68;;;0.80;;
60641;SDS011;46837;52.446;-1.930;2023-07-31T03:48:07;2.76;;;1.08;;
60641;SDS011;46837;52.446;-1.930;2023-07-31T03:49:07;1.16;;;0.84;;
60641;SDS011;46837;52.446;-1.930;2023-07-31T03:50:07;0.86;;;0.78;;
60641;SDS011;46837;52.446;-1.930;2023-07-31T03:51:07;1.88;;;0.58;;
60641;SDS011;46837;52.446;-1.930;2023-07-31T03:52:07;1.16;;;0.74;;
60641;SDS011;46837;52.446;-1.930;2023-07-31T03:53:07;2.42;;;1.48;;
60641;SDS011;46837;52.446;-1.930;2023-07-31T03:54:07;2.08;;;0.96;;
60641;SDS011;46837;52.446;-1.930;2023-07-31T03:55:07;2.52;;;0.86;;
60641;SDS011;46837;52.446;-1.930;2023-07-31T03:56:07;1.18;;;0.98;;
60641;SDS011;46837;52.446;-1.930;2023-07-31T03:57:07;3.04;;;1.08;;
60641;SDS011;46837;52.446;-1.930;2023-07-31T03:58:07;1.16;;;0.70;;
60641;SDS011;46837;52.446;-1.930;2023-07-31T03:59:07;3.64;;;1.78;;
60641;SDS011;46837;52.446;-1.930;2023-07-31T04:00:07;1.12;;;0.82;;
60641;SDS011;46837;52.446;-1.930;2023-07-31T04:01:07;6.74;;;1.62;;
60641;SDS011;46837;52.446;-1.930;2023-07-31T04:02:07;1.10;;;1.00;;
60641;SDS011;46837;52.446;-1.930;2023-07-31T04:03:07;3.12;;;0.84;;
60641;SDS011;46837;52.446;-1.930;2023-07-31T04:04:07;2.32;;;1.08;;
60641;SDS011;46837;52.446;-1.930;2023-07-31T04:05:07;0.96;;;0.80;;
60641;SDS011;46837;52.446;-1.930;2023-07-31T04:06:07;1.92;;;1.18;;
60641;SDS011;46837;52.446;-1.930;2023-07-31T04:07:07;2.98;;;0.98;;
60641;SDS011;46837;52.446;-1.930;2023-07-31T04:08:07;4.46;;;1.16;;
60641;SDS011;46837;52.446;-1.930;2023-07-31T04:09:07;1.44;;;1.18;;
60641;SDS011;46837;52.446;-1.930;2023-07-31T04:10:07;0.82;;;0.76;;
60641;SDS011;46837;52.446;-1.930;2023-07-31T04:11:07;0.92;;;0.78;;
60641;SDS011;46837;52.446;-1.930;2023-07-31T04:12:07;2.52;;;1.24;;
60641;SDS011;46837;52.446;-1.930;2023-07-31T04:13:07;3.74;;;1.62;;
60641;SDS011;46837;52.446;-1.930;2023-07-31T04:14:07;2.58;;;1.00;;
60641;SDS011;46837;52.446;-1.930;2023-07-31T04:15:07;2.24;;;1.44;;
60641;SDS011;46837;52.446;-1.930;2023-07-31T04:16:07;3.30;;;1.24;;
60641;SDS011;46837;52.446;-1.930;2023-07-31T04:17:07;3.88;;;2.16;;
60641;SDS011;46837;52.446;-1.930;2023-07-31T04:18:07;1.24;;;1.10;;
60641;SDS011;46837;52.446;-1.930;2023-07-31T04:19:07;2.00;;;1.38;;
60641;SDS011;46837;52.446;-1.930;2023-07-31T04:20:07;4.38;;;1.14;;
60641;SDS011;46837;52.446;-1.930;2023-07-31T04:21:07;4.18;;;1.18;;
60641;SDS011;46837;52.446;-1.930;2023-07-31T04:22:07;1.64;;;1.54;;
60641;SDS011;46837;52.446;-1.930;2023-07-31T04:23:07;1.28;;;1.18;;
60641;SDS011;46837;52.446;-1.930;2023-07-31T04:24:07;1.38;;;1.18;;
60641;SDS011;46837;52.446;-1.930;2023-07-31T04:25:07;0.86;;;0.86;;
60641;SDS011;46837;52.446;-1.930;2023-07-31T04:26:07;1.40;;;1.20;;
60641;SDS011;46837;52.446;-1.930;2023-07-31T04:27:07;5.56;;;3.06;;
60641;SDS011;46837;52.446;-1.930;2023-07-31T04:28:07;1.78;;;1.68;;
60641;SDS011;46837;52.446;-1.930;2023-07-31T04:29:07;3.98;;;1.52;;
60641;SDS011;46837;52.446;-1.930;2023-07-31T04:30:07;2.56;;;1.52;;
60641;SDS011;46837;52.446;-1.930;2023-07-31T04:31:07;1.72;;;1.60;;
60641;SDS011;46837;52.446;-1.930;2023-07-31T04:32:07;2.58;;;2.24;;
60641;SDS011;46837;52.446;-1.930;2023-07-31T04:33:07;4.04;;;2.14;;
60641;SDS011;46837;52.446;-1.930;2023-07-31T04:34:07;2.78;;;1.84;;
60641;SDS011;46837;52.446;-1.930;2023-07-31T04:35:07;2.98;;;1.80;;
60641;SDS011;46837;52.446;-1.930;2023-07-31T04:36:07;3.36;;;2.14;;
60641;SDS011;46837;52.446;-1.930;2023-07-31T04:37:07;10.88;;;2.36;;
60641;SDS011;46837;52.446;-1.930;2023-07-31T04:38:07;2.10;;;1.94;;
60641;SDS011;46837;52.446;-1.930;2023-07-31T04:39:07;2.12;;;1.90;;
60641;SDS011;46837;52.446;-1.930;2023-07-31T04:40:07;4.46;;;2.26;;
60641;SDS011;46837;52.446;-1.930;2023-07-31T04:41:07;2.32;;;1.80;;
60641;SDS011;46837;52.446;-1.930;2023-07-31T04:42:07;1.94;;;1.56;;
60641;SDS011;46837;52.446;-1.930;2023-07-31T04:43:07;3.78;;;2.42;;
60641;SDS011;46837;52.446;-1.930;2023-07-31T04:44:07;3.24;;;2.62;;
60641;SDS011;46837;52.446;-1.930;2023-07-31T04:45:08;5.22;;;2.02;;
60641;SDS011;46837;52.446;-1.930;2023-07-31T04:46:07;3.44;;;2.08;;
60641;SDS011;46837;52.446;-1.930;2023-07-31T04:47:07;3.96;;;2.54;;
60641;SDS011;46837;52.446;-1.930;2023-07-31T04:48:07;4.72;;;2.70;;
60641;SDS011;46837;52.446;-1.930;2023-07-31T04:49:07;3.70;;;2.68;;
60641;SDS011;46837;52.446;-1.930;2023-07-31T04:50:07;3.48;;;2.86;;
60641;SDS011;46837;52.446;-1.930;2023-07-31T04:51:07;6.44;;;2.86;;
60641;SDS011;46837;52.446;-1.930;2023-07-31T04:52:07;8.38;;;3.18;;
60641;SDS011;46837;52.446;-1.930;2023-07-31T04:53:07;3.58;;;2.76;;
60641;SDS011;46837;52.446;-1.930;2023-07-31T04:54:07;4.72;;;2.92;;
60641;SDS011;46837;52.446;-1.930;2023-07-31T04:55:07;7.02;;;3.56;;
60641;SDS011;46837;52.446;-1.930;2023-07-31T04:56:07;4.58;;;3.44;;
60641;SDS011;46837;52.446;-1.930;2023-07-31T04:57:07;5.44;;;3.32;;
60641;SDS011;46837;52.446;-1.930;2023-07-31T04:58:07;8.94;;;3.86;;
60641;SDS011;46837;52.446;-1.930;2023-07-31T04:59:07;4.78;;;3.60;;
60641;SDS011;46837;52.446;-1.930;2023-07-31T05:00:07;5.40;;;3.64;;
60641;SDS011;46837;52.446;-1.930;2023-07-31T05:01:07;4.28;;;3.58;;
60641;SDS011;46837;52.446;-1.930;2023-07-31T05:02:07;5.42;;;3.50;;
60641;SDS011;46837;52.446;-1.930;2023-07-31T05:03:07;6.60;;;3.88;;
60641;SDS011;46837;52.446;-1.930;2023-07-31T05:04:07;8.98;;;4.52;;
60641;SDS011;46837;52.446;-1.930;2023-07-31T05:05:07;7.42;;;4.38;;
60641;SDS011;46837;52.446;-1.930;2023-07-31T05:06:07;7.96;;;3.92;;
60641;SDS011;46837;52.446;-1.930;2023-07-31T05:07:07;6.08;;;4.18;;
60641;SDS011;46837;52.446;-1.930;2023-07-31T05:08:07;5.40;;;4.50;;
60641;SDS011;46837;52.446;-1.930;2023-07-31T05:09:07;9.88;;;4.40;;
60641;SDS011;46837;52.446;-1.930;2023-07-31T05:10:07;4.76;;;3.94;;
60641;SDS011;46837;52.446;-1.930;2023-07-31T05:11:07;8.42;;;3.88;;
60641;SDS011;46837;52.446;-1.930;2023-07-31T05:12:07;5.72;;;4.12;;
60641;SDS011;46837;52.446;-1.930;2023-07-31T05:13:07;7.98;;;4.60;;
60641;SDS011;46837;52.446;-1.930;2023-07-31T05:14:07;5.58;;;3.74;;
60641;SDS011;46837;52.446;-1.930;2023-07-31T05:15:07;7.26;;;4.38;;
60641;SDS011;46837;52.446;-1.930;2023-07-31T05:16:07;6.46;;;4.64;;
60641;SDS011;46837;52.446;-1.930;2023-07-31T05:17:07;7.00;;;3.94;;
60641;SDS011;46837;52.446;-1.930;2023-07-31T05:18:07;5.84;;;4.38;;
60641;SDS011;46837;52.446;-1.930;2023-07-31T05:19:07;6.06;;;4.26;;
60641;SDS011;46837;52.446;-1.930;2023-07-31T05:20:07;6.86;;;4.96;;
60641;SDS011;46837;52.446;-1.930;2023-07-31T05:21:07;6.36;;;3.84;;
60641;SDS011;46837;52.446;-1.930;2023-07-31T05:22:07;7.84;;;4.80;;
60641;SDS011;46837;52.446;-1.930;2023-07-31T05:23:07;8.30;;;4.58;;
60641;SDS011;46837;52.446;-1.930;2023-07-31T05:24:07;7.66;;;4.46;;
60641;SDS011;46837;52.446;-1.930;2023-07-31T05:25:07;7.26;;;4.44;;
60641;SDS011;46837;52.446;-1.930;2023-07-31T05:26:07;9.80;;;4.10;;
60641;SDS011;46837;52.446;-1.930;2023-07-31T05:27:07;6.64;;;4.74;;
60641;SDS011;46837;52.446;-1.930;2023-07-31T05:28:07;6.34;;;4.16;;
60641;SDS011;46837;52.446;-1.930;2023-07-31T05:29:07;4.26;;;3.28;;
60641;SDS011;46837;52.446;-1.930;2023-07-31T05:30:07;5.72;;;4.76;;
60641;SDS011;46837;52.446;-1.930;2023-07-31T05:31:07;6.18;;;4.00;;
60641;SDS011;46837;52.446;-1.930;2023-07-31T05:32:07;5.68;;;3.58;;
60641;SDS011;46837;52.446;-1.930;2023-07-31T05:33:07;8.20;;;4.56;;
60641;SDS011;46837;52.446;-1.930;2023-07-31T05:34:07;11.36;;;4.86;;
60641;SDS011;46837;52.446;-1.930;2023-07-31T05:35:07;7.58;;;4.34;;
60641;SDS011;46837;52.446;-1.930;2023-07-31T05:36:07;6.42;;;4.36;;
60641;SDS011;46837;52.446;-1.930;2023-07-31T05:37:07;10.64;;;3.54;;
60641;SDS011;46837;52.446;-1.930;2023-07-31T05:38:07;10.56;;;4.96;;
60641;SDS011;46837;52.446;-1.930;2023-07-31T05:39:09;6.24;;;4.06;;
60641;SDS011;46837;52.446;-1.930;2023-07-31T05:40:07;6.70;;;4.06;;
60641;SDS011;46837;52.446;-1.930;2023-07-31T05:41:07;4.76;;;4.04;;
60641;SDS011;46837;52.446;-1.930;2023-07-31T05:42:07;5.84;;;3.22;;
60641;SDS011;46837;52.446;-1.930;2023-07-31T05:43:07;6.70;;;4.06;;
60641;SDS011;46837;52.446;-1.930;2023-07-31T05:44:07;3.78;;;3.48;;
60641;SDS011;46837;52.446;-1.930;2023-07-31T05:45:07;5.90;;;3.92;;
60641;SDS011;46837;52.446;-1.930;2023-07-31T05:46:07;8.80;;;4.40;;
60641;SDS011;46837;52.446;-1.930;2023-07-31T05:47:07;12.20;;;4.18;;
60641;SDS011;46837;52.446;-1.930;2023-07-31T05:48:07;5.06;;;3.72;;
60641;SDS011;46837;52.446;-1.930;2023-07-31T05:49:07;5.76;;;3.46;;
60641;SDS011;46837;52.446;-1.930;2023-07-31T05:50:07;4.88;;;3.56;;
60641;SDS011;46837;52.446;-1.930;2023-07-31T05:51:07;5.32;;;3.36;;
60641;SDS011;46837;52.446;-1.930;2023-07-31T05:52:07;6.34;;;3.50;;
60641;SDS011;46837;52.446;-1.930;2023-07-31T05:53:07;6.06;;;3.10;;
60641;SDS011;46837;52.446;-1.930;2023-07-31T05:54:07;12.64;;;4.32;;
60641;SDS011;46837;52.446;-1.930;2023-07-31T05:55:07;4.80;;;3.38;;
60641;SDS011;46837;52.446;-1.930;2023-07-31T05:56:07;6.70;;;3.50;;
60641;SDS011;46837;52.446;-1.930;2023-07-31T05:57:07;5.24;;;3.22;;
60641;SDS011;46837;52.446;-1.930;2023-07-31T05:58:07;3.92;;;2.86;;
60641;SDS011;46837;52.446;-1.930;2023-07-31T05:59:08;4.20;;;3.12;;
60641;SDS011;46837;52.446;-1.930;2023-07-31T06:00:07;5.00;;;2.48;;
60641;SDS011;46837;52.446;-1.930;2023-07-31T06:01:07;4.02;;;3.30;;
60641;SDS011;46837;52.446;-1.930;2023-07-31T06:02:07;4.02;;;2.70;;
60641;SDS011;46837;52.446;-1.930;2023-07-31T06:03:07;4.10;;;2.86;;